Time;durP1;ratioP1;P1;durP2;ratioP2;P2;SDS_P1;SDS_P2;PMS_P1;PMS_P2;Temp;Humidity;BMP_temperature;BMP_pressure;BME280_temperature;BME280_humidity;BME280_pressure;Samples;Min_cycle;Max_cycle;Signal;HPM_P1;HPM_P2
2022/09/22 16:55:15;;;;;;;6.43;3.38;;;;;;;;;;5116379;22;20489;-75
2022/09/22 16:57:42;;;;;;;10.23;3.30;;;;;;;;;;5106422;28;20043;-75
2022/09/22 17:00:11;;;;;;;6.15;3.97;;;;;;;;;;5109115;28;20437;-75
2022/09/22 17:02:38;;;;;;;7.53;3.67;;;;;;;;;;5103051;28;20139;-74
2022/09/22 17:05:06;;;;;;;7.18;3.80;;;;;;;;;;5102215;28;20072;-72
2022/09/22 17:07:33;;;;;;;9.70;3.63;;;;;;;;;;5109687;28;20095;-72
2022/09/22 17:10:01;;;;;;;13.50;3.55;;;;;;;;;;5108158;28;20058;-72
2022/09/22 17:12:29;;;;;;;9.40;4.90;;;;;;;;;;5109322;28;20036;-71
2022/09/22 17:14:56;;;;;;;7.95;4.32;;;;;;;;;;5092181;28;20062;-72
2022/09/22 17:17:24;;;;;;;11.45;4.40;;;;;;;;;;5088476;28;20104;-72
2022/09/22 17:19:51;;;;;;;12.60;4.60;;;;;;;;;;5095333;28;20086;-73
2022/09/22 17:22:19;;;;;;;14.45;5.78;;;;;;;;;;5092456;28;20564;-73
2022/09/22 17:24:46;;;;;;;7.43;3.00;;;;;;;;;;5088890;28;20068;-75
2022/09/22 17:27:13;;;;;;;8.30;3.95;;;;;;;;;;5107664;28;20481;-75
2022/09/22 17:29:41;;;;;;;12.38;4.05;;;;;;;;;;5109265;28;20576;-75
2022/09/22 17:32:09;;;;;;;9.55;5.15;;;;;;;;;;5095000;28;20032;-75
2022/09/22 17:34:37;;;;;;;12.23;5.10;;;;;;;;;;5109181;28;20066;-75
2022/09/22 17:37:04;;;;;;;9.85;4.40;;;;;;;;;;5097629;28;20044;-75
2022/09/22 17:39:32;;;;;;;12.52;4.35;;;;;;;;;;5098272;28;20118;-73
2022/09/22 17:42:00;;;;;;;10.48;4.68;;;;;;;;;;5093932;28;20040;-73
2022/09/22 17:44:29;;;;;;;10.18;4.40;;;;;;;;;;5091638;28;20127;-73
2022/09/22 17:55:05;;;;;;;11.85;6.00;;;;;;;;;;5101869;28;20664;-74
2022/09/22 17:57:35;;;;;;;12.85;6.70;;;;;;;;;;5083877;28;20032;-74
2022/09/22 18:00:03;;;;;;;11.60;6.50;;;;;;;;;;5076855;28;20119;-74
2022/09/22 18:02:35;;;;;;;15.93;7.07;;;;;;;;;;5078481;28;20044;-74
2022/09/22 18:05:03;;;;;;;14.90;7.43;;;;;;;;;;5080982;28;20378;-74
2022/09/22 18:07:33;;;;;;;13.88;6.32;;;;;;;;;;5074831;28;20123;-72
2022/09/22 18:10:01;;;;;;;13.10;6.22;;;;;;;;;;5073373;28;20397;-73
2022/09/22 18:12:30;;;;;;;8.05;4.53;;;;;;;;;;5073343;28;20036;-72
2022/09/22 18:15:00;;;;;;;8.98;3.33;;;;;;;;;;5074523;28;20041;-72
2022/09/22 18:17:28;;;;;;;8.23;3.00;;;;;;;;;;5074552;28;20040;-72
2022/09/22 18:19:57;;;;;;;6.47;2.45;;;;;;;;;;5074759;28;20060;-72
2022/09/22 18:22:25;;;;;;;8.18;2.00;;;;;;;;;;5074347;28;20044;-71
2022/09/22 18:24:54;;;;;;;3.40;2.17;;;;;;;;;;5073672;28;20068;-72
2022/09/22 18:27:25;;;;;;;3.40;2.10;;;;;;;;;;5073812;28;20468;-72
2022/09/22 18:29:57;;;;;;;4.85;1.98;;;;;;;;;;5074733;28;20045;-72
2022/09/22 18:32:25;;;;;;;10.10;2.78;;;;;;;;;;5074556;28;20040;-71
2022/09/22 18:34:54;;;;;;;8.00;3.30;;;;;;;;;;5077815;28;20036;-72
2022/09/22 18:37:22;;;;;;;7.97;4.18;;;;;;;;;;5096552;28;20043;-71
2022/09/22 18:39:50;;;;;;;11.60;4.13;;;;;;;;;;5094542;28;20460;-72
2022/09/22 18:42:18;;;;;;;10.30;4.43;;;;;;;;;;5094322;28;20044;-71
2022/09/22 18:44:46;;;;;;;8.70;4.72;;;;;;;;;;5093473;28;20071;-70
2022/09/22 18:47:16;;;;;;;14.10;4.78;;;;;;;;;;5092946;28;20044;-73
2022/09/22 18:49:46;;;;;;;10.63;4.57;;;;;;;;;;5094251;28;20489;-71
2022/09/22 18:52:15;;;;;;;6.60;4.10;;;;;;;;;;5094482;28;20050;-71
2022/09/22 18:54:42;;;;;;;14.82;4.30;;;;;;;;;;5093995;28;20641;-71
2022/09/22 18:57:13;;;;;;;8.80;4.35;;;;;;;;;;5094277;28;20051;-71
2022/09/22 18:59:41;;;;;;;10.05;4.75;;;;;;;;;;5094007;28;20044;-70
2022/09/22 19:02:10;;;;;;;9.65;4.05;;;;;;;;;;5094181;28;20649;-71
2022/09/22 19:04:38;;;;;;;7.78;2.88;;;;;;;;;;5093941;28;20523;-72
2022/09/22 19:09:52;;;;;;;7.10;2.78;;;;;;;;;;5093911;28;20040;-72
2022/09/22 19:12:20;;;;;;;5.40;2.55;;;;;;;;;;5093976;28;20107;-70
2022/09/22 19:14:48;;;;;;;5.18;2.33;;;;;;;;;;5093856;28;20040;-69
2022/09/22 19:17:16;;;;;;;5.32;2.13;;;;;;;;;;5093909;28;20493;-69
2022/09/22 19:19:48;;;;;;;7.38;2.40;;;;;;;;;;5093909;28;20127;-69
2022/09/22 19:22:16;;;;;;;5.05;2.03;;;;;;;;;;5093971;28;20040;-71
2022/09/22 19:24:45;;;;;;;6.10;1.80;;;;;;;;;;5093843;28;20127;-70
2022/09/22 19:27:14;;;;;;;2.72;1.60;;;;;;;;;;5093730;28;20075;-69
2022/09/22 19:29:41;;;;;;;2.65;1.50;;;;;;;;;;5093805;28;20101;-70
2022/09/22 19:32:09;;;;;;;5.47;2.58;;;;;;;;;;5093789;28;20111;-69
2022/09/22 19:34:37;;;;;;;3.78;1.60;;;;;;;;;;5093362;28;20477;-68
2022/09/22 19:37:05;;;;;;;3.97;1.45;;;;;;;;;;5093517;28;20044;-70
2022/09/22 19:39:33;;;;;;;5.78;2.00;;;;;;;;;;5093494;28;20048;-70
2022/09/22 19:42:01;;;;;;;4.68;1.50;;;;;;;;;;5093400;28;20048;-70
2022/09/22 19:44:29;;;;;;;3.55;1.45;;;;;;;;;;5092978;28;20044;-71
2022/09/22 19:46:56;;;;;;;2.97;1.35;;;;;;;;;;5093282;28;20068;-70
2022/09/22 19:49:24;;;;;;;2.63;1.50;;;;;;;;;;5093032;28;20177;-71
2022/09/22 19:51:52;;;;;;;3.25;1.30;;;;;;;;;;5093026;28;20114;-72
2022/09/22 19:54:20;;;;;;;3.13;1.60;;;;;;;;;;5092944;28;20131;-72
2022/09/22 19:56:48;;;;;;;4.93;2.00;;;;;;;;;;5093096;28;20064;-71
2022/09/22 19:59:18;;;;;;;6.93;1.90;;;;;;;;;;5093217;28;20439;-71
2022/09/22 20:01:46;;;;;;;5.88;2.60;;;;;;;;;;5093158;28;20043;-72
2022/09/22 20:04:19;;;;;;;4.38;2.38;;;;;;;;;;5092909;28;20040;-73
2022/09/22 20:06:47;;;;;;;4.50;2.42;;;;;;;;;;5092996;28;20374;-71
2022/09/22 20:09:16;;;;;;;5.05;2.42;;;;;;;;;;5091893;28;20040;-70
2022/09/22 20:11:45;;;;;;;6.57;2.42;;;;;;;;;;5092599;28;20033;-71
2022/09/22 20:14:19;;;;;;;5.80;2.97;;;;;;;;;;5092901;28;20054;-73
2022/09/22 20:16:47;;;;;;;5.40;2.30;;;;;;;;;;5091639;28;20489;-71
2022/09/22 20:19:15;;;;;;;3.95;2.65;;;;;;;;;;5093126;28;20304;-72
2022/09/22 20:21:44;;;;;;;4.57;2.60;;;;;;;;;;5092941;28;20043;-71
2022/09/22 20:24:12;;;;;;;3.17;2.00;;;;;;;;;;5092908;28;20040;-71
2022/09/22 20:26:40;;;;;;;3.53;2.15;;;;;;;;;;5091761;28;20048;-71
2022/09/22 20:29:09;;;;;;;3.15;2.22;;;;;;;;;;5092956;28;20471;-72
2022/09/22 20:31:36;;;;;;;6.13;3.00;;;;;;;;;;5091509;28;20378;-71
2022/09/22 20:34:04;;;;;;;4.85;2.55;;;;;;;;;;5092739;28;20473;-72
2022/09/22 20:36:33;;;;;;;3.47;2.50;;;;;;;;;;5092604;28;20043;-72
2022/09/22 20:39:04;;;;;;;2.70;2.10;;;;;;;;;;5092760;28;20663;-72
2022/09/22 20:41:31;;;;;;;4.70;2.30;;;;;;;;;;5092948;28;20067;-72
2022/09/22 20:43:59;;;;;;;5.95;2.80;;;;;;;;;;5092619;28;20378;-71
2022/09/22 20:46:26;;;;;;;3.85;2.47;;;;;;;;;;5092788;28;20063;-71
2022/09/22 20:48:56;;;;;;;7.40;2.50;;;;;;;;;;5092717;28;20040;-71
2022/09/22 20:51:24;;;;;;;5.57;3.00;;;;;;;;;;5092795;28;20047;-71
2022/09/22 20:53:51;;;;;;;3.72;2.50;;;;;;;;;;5091449;28;20123;-71
2022/09/22 20:56:19;;;;;;;4.70;2.50;;;;;;;;;;5092676;28;20044;-71
2022/09/22 20:58:46;;;;;;;3.78;2.45;;;;;;;;;;5091474;28;20078;-71
2022/09/22 21:01:15;;;;;;;4.03;2.30;;;;;;;;;;5092567;28;20057;-72
2022/09/22 21:03:42;;;;;;;3.30;2.20;;;;;;;;;;5092422;28;20040;-71
2022/09/22 21:06:11;;;;;;;4.43;2.10;;;;;;;;;;5092888;28;20044;-73
2022/09/22 21:11:26;;;;;;;3.15;2.17;;;;;;;;;;5092431;28;20075;-73
2022/09/22 21:13:57;;;;;;;3.95;2.20;;;;;;;;;;5092367;28;20040;-73
2022/09/22 21:16:25;;;;;;;5.75;2.78;;;;;;;;;;5091000;28;20420;-72
2022/09/22 21:18:52;;;;;;;2.70;1.85;;;;;;;;;;5092421;28;20146;-71
2022/09/22 21:21:21;;;;;;;3.55;1.85;;;;;;;;;;5092357;28;20060;-71
2022/09/22 21:23:49;;;;;;;2.38;1.80;;;;;;;;;;5091045;28;20040;-71
2022/09/22 21:26:18;;;;;;;3.28;2.05;;;;;;;;;;5092354;28;20059;-71
2022/09/22 21:28:45;;;;;;;4.30;2.15;;;;;;;;;;5090949;28;20477;-72
2022/09/22 21:31:13;;;;;;;3.10;1.60;;;;;;;;;;5095279;28;20090;-72
2022/09/22 21:33:41;;;;;;;3.28;2.03;;;;;;;;;;5096227;28;20367;-71
2022/09/22 21:36:09;;;;;;;4.00;1.70;;;;;;;;;;5095937;28;20036;-71
2022/09/22 21:38:36;;;;;;;2.45;1.77;;;;;;;;;;5096013;28;20040;-72
2022/09/22 21:41:05;;;;;;;3.33;1.58;;;;;;;;;;5095995;28;20032;-71
2022/09/22 21:43:32;;;;;;;2.03;1.38;;;;;;;;;;5096002;28;20082;-72
2022/09/22 21:46:04;;;;;;;2.17;1.52;;;;;;;;;;5095780;28;20621;-72
2022/09/22 21:48:35;;;;;;;2.10;1.50;;;;;;;;;;5095755;28;20036;-71
2022/09/22 21:51:07;;;;;;;2.90;1.80;;;;;;;;;;5095734;28;20071;-71
2022/09/22 21:53:35;;;;;;;3.08;1.90;;;;;;;;;;5095648;28;20086;-71
2022/09/22 21:56:03;;;;;;;4.40;1.67;;;;;;;;;;5095604;28;20040;-71
2022/09/22 21:58:32;;;;;;;4.15;1.90;;;;;;;;;;5095548;28;20109;-71
2022/09/22 22:01:06;;;;;;;3.60;1.75;;;;;;;;;;5095514;28;20082;-71
2022/09/22 22:03:34;;;;;;;2.55;1.90;;;;;;;;;;5095516;28;20097;-71
2022/09/22 22:06:05;;;;;;;3.25;2.08;;;;;;;;;;5095052;28;20464;-71
2022/09/22 22:08:33;;;;;;;2.90;2.30;;;;;;;;;;5094382;28;20439;-71
2022/09/22 22:11:08;;;;;;;2.92;1.80;;;;;;;;;;5095473;28;20052;-72
2022/09/22 22:13:36;;;;;;;4.45;2.75;;;;;;;;;;5095549;28;20428;-71
2022/09/22 22:16:06;;;;;;;3.78;1.90;;;;;;;;;;5095254;28;20541;-71
2022/09/22 22:18:35;;;;;;;3.13;1.42;;;;;;;;;;5095216;28;20044;-71
2022/09/22 22:21:23;;;;;;;2.97;1.88;;;;;;;;;;5095116;28;20118;-71
2022/09/22 22:23:57;;;;;;;2.92;1.67;;;;;;;;;;5095203;28;20062;-71
2022/09/22 22:26:25;;;;;;;;;;;;;;;;;;5095479;28;20048;-71
2022/09/22 22:28:52;;;;;;;1.48;1.27;;;;;;;;;;5095016;28;20014;-71
2022/09/22 22:31:21;;;;;;;2.22;1.60;;;;;;;;;;5094955;28;20044;-71
2022/09/22 22:33:50;;;;;;;1.65;1.40;;;;;;;;;;5094958;28;20159;-72
2022/09/22 22:36:18;;;;;;;2.17;1.20;;;;;;;;;;5094949;28;20060;-72
2022/09/22 22:38:45;;;;;;;1.40;1.30;;;;;;;;;;5093571;28;20048;-72
2022/09/22 22:41:14;;;;;;;1.67;1.50;;;;;;;;;;5094713;28;20043;-71
2022/09/22 22:43:43;;;;;;;4.05;1.50;;;;;;;;;;5094761;28;20044;-71
2022/09/22 22:46:15;;;;;;;3.88;1.52;;;;;;;;;;5093424;28;20500;-71
2022/09/22 22:48:43;;;;;;;3.47;1.80;;;;;;;;;;5094692;28;20040;-73
2022/09/22 22:51:16;;;;;;;1.75;1.65;;;;;;;;;;5094790;28;20044;-71
2022/09/22 22:53:43;;;;;;;1.52;1.42;;;;;;;;;;5094695;28;20097;-72
2022/09/22 22:56:12;;;;;;;1.67;1.50;;;;;;;;;;5094805;28;20044;-72
2022/09/22 22:58:39;;;;;;;1.70;1.20;;;;;;;;;;5094675;28;20079;-72
2022/09/22 23:01:15;;;;;;;1.85;1.60;;;;;;;;;;5096560;28;20066;-71
2022/09/22 23:03:44;;;;;;;1.90;1.60;;;;;;;;;;5094880;28;20513;-71
2022/09/22 23:06:15;;;;;;;1.90;1.48;;;;;;;;;;5094429;28;20040;-71
2022/09/22 23:08:43;;;;;;;2.25;1.58;;;;;;;;;;5094255;28;20043;-72
2022/09/22 23:11:11;;;;;;;2.63;1.92;;;;;;;;;;5093203;28;20082;-71
2022/09/22 23:13:39;;;;;;;4.30;2.10;;;;;;;;;;5093999;28;20094;-71
2022/09/22 23:16:10;;;;;;;3.63;2.22;;;;;;;;;;5094086;28;20040;-72
2022/09/22 23:18:41;;;;;;;3.55;2.30;;;;;;;;;;5094110;28;20036;-72
2022/09/22 23:21:09;;;;;;;2.45;1.88;;;;;;;;;;5092889;28;20051;-72
2022/09/22 23:23:37;;;;;;;5.22;2.30;;;;;;;;;;5093966;28;20078;-71
2022/09/22 23:26:06;;;;;;;3.67;2.38;;;;;;;;;;5093901;28;20090;-71
2022/09/22 23:28:34;;;;;;;6.10;2.10;;;;;;;;;;5093777;28;20040;-71
2022/09/22 23:31:05;;;;;;;2.92;1.88;;;;;;;;;;5093805;28;20036;-71
2022/09/22 23:33:33;;;;;;;6.55;2.00;;;;;;;;;;5093663;28;20040;-72
2022/09/22 23:36:01;;;;;;;4.55;2.30;;;;;;;;;;5093860;28;20127;-72
2022/09/22 23:38:30;;;;;;;3.13;2.13;;;;;;;;;;5093856;28;20050;-71
2022/09/22 23:40:58;;;;;;;3.40;1.92;;;;;;;;;;5092280;28;20039;-71
2022/09/22 23:43:26;;;;;;;4.65;2.10;;;;;;;;;;5093574;28;20047;-71
2022/09/22 23:45:54;;;;;;;5.65;2.10;;;;;;;;;;5093571;28;20047;-71
2022/09/22 23:48:22;;;;;;;8.05;2.00;;;;;;;;;;5093868;28;20063;-72
2022/09/22 23:50:51;;;;;;;3.70;2.15;;;;;;;;;;5093483;28;20036;-72
2022/09/22 23:53:19;;;;;;;4.53;2.17;;;;;;;;;;5093268;28;20507;-71
2022/09/22 23:55:46;;;;;;;2.50;1.73;;;;;;;;;;5093373;28;20044;-71
2022/09/22 23:58:14;;;;;;;3.80;2.20;;;;;;;;;;5093284;28;20465;-71
